createdAt,value
2023-04-08T00:00:36.448Z,94724.00
2023-04-08T00:01:36.472Z,94724.00
2023-04-08T00:02:36.658Z,94722.00
2023-04-08T00:03:36.542Z,94720.00
2023-04-08T00:04:36.535Z,94720.00
2023-04-08T00:05:36.507Z,94720.00
2023-04-08T00:06:36.542Z,94724.00
2023-04-08T00:07:36.470Z,94726.00
2023-04-08T00:08:36.516Z,94718.00
2023-04-08T00:09:36.486Z,94722.00
2023-04-08T00:10:36.454Z,94722.00
2023-04-08T00:11:36.458Z,94722.00
2023-04-08T00:12:36.543Z,94722.00
2023-04-08T00:13:36.457Z,94716.00
2023-04-08T00:14:37.291Z,94724.00
2023-04-08T00:15:36.508Z,94718.00
2023-04-08T00:16:36.485Z,94718.00
2023-04-08T00:17:36.537Z,94720.00
2023-04-08T00:18:36.458Z,94726.00
2023-04-08T00:19:36.466Z,94724.00
2023-04-08T00:20:36.437Z,94724.00
2023-04-08T00:21:36.719Z,94720.00
2023-04-08T00:22:36.472Z,94718.00
2023-04-08T00:23:36.488Z,94718.00
2023-04-08T00:24:36.456Z,94716.00
2023-04-08T00:25:36.434Z,94714.00
2023-04-08T00:26:36.458Z,94716.00
2023-04-08T00:27:36.470Z,94714.00
2023-04-08T00:28:36.434Z,94714.00
2023-04-08T00:29:36.455Z,94712.00
2023-04-08T00:30:36.459Z,94712.00
2023-04-08T00:31:36.443Z,94712.00
2023-04-08T00:32:36.526Z,94712.00
2023-04-08T00:33:36.436Z,94712.00
2023-04-08T00:34:36.421Z,94710.00
2023-04-08T00:35:36.443Z,94712.00
2023-04-08T00:36:36.426Z,94710.00
2023-04-08T00:37:36.424Z,94712.00
2023-04-08T00:38:36.466Z,94714.00
2023-04-08T00:39:36.464Z,94716.00
2023-04-08T00:40:36.468Z,94712.00
2023-04-08T00:41:36.476Z,94716.00
2023-04-08T00:42:36.461Z,94716.00
2023-04-08T00:43:36.505Z,94714.00
2023-04-08T00:44:36.471Z,94714.00
2023-04-08T00:45:36.509Z,94714.00
2023-04-08T00:46:36.712Z,94712.00
2023-04-08T00:47:36.503Z,94710.00
2023-04-08T00:48:36.448Z,94710.00
2023-04-08T00:49:36.456Z,94710.00
2023-04-08T00:50:36.485Z,94712.00
2023-04-08T00:51:36.505Z,94716.00
2023-04-08T00:52:36.525Z,94714.00
2023-04-08T00:53:36.456Z,94716.00
2023-04-08T00:54:36.499Z,94718.00
2023-04-08T00:55:36.492Z,94718.00
2023-04-08T00:56:36.492Z,94718.00
2023-04-08T00:57:36.481Z,94718.00
2023-04-08T00:58:36.476Z,94718.00
2023-04-08T00:59:36.490Z,94722.00
2023-04-08T01:00:36.461Z,94722.00
2023-04-08T01:01:36.784Z,94722.00
2023-04-08T01:02:36.648Z,94720.00
2023-04-08T01:03:36.522Z,94720.00
2023-04-08T01:04:36.484Z,94720.00
2023-04-08T01:05:36.473Z,94716.00
2023-04-08T01:06:36.472Z,94716.00
2023-04-08T01:07:36.514Z,94714.00
2023-04-08T01:08:36.488Z,94714.00
2023-04-08T01:09:36.474Z,94714.00
2023-04-08T01:10:36.459Z,94710.00
2023-04-08T01:11:36.646Z,94710.00
2023-04-08T01:12:36.473Z,94710.00
2023-04-08T01:13:36.461Z,94710.00
2023-04-08T01:14:36.493Z,94712.00
2023-04-08T01:15:37.232Z,94710.00
2023-04-08T01:16:36.484Z,94710.00
2023-04-08T01:17:36.859Z,94712.00
2023-04-08T01:18:36.444Z,94714.00
2023-04-08T01:19:36.438Z,94716.00
2023-04-08T01:20:36.498Z,94716.00
2023-04-08T01:21:36.447Z,94718.00
2023-04-08T01:22:36.430Z,94720.00
2023-04-08T01:23:37.256Z,94722.00
2023-04-08T01:24:36.452Z,94720.00
2023-04-08T01:25:36.468Z,94718.00
2023-04-08T01:26:36.463Z,94722.00
2023-04-08T01:27:36.504Z,94718.00
2023-04-08T01:28:36.469Z,94716.00
2023-04-08T01:29:36.487Z,94718.00
2023-04-08T01:30:36.458Z,94720.00
2023-04-08T01:31:36.595Z,94720.00
2023-04-08T01:32:36.502Z,94722.00
2023-04-08T01:33:36.513Z,94720.00
2023-04-08T01:34:36.484Z,94722.00
2023-04-08T01:35:36.478Z,94720.00
2023-04-08T01:36:36.460Z,94722.00
2023-04-08T01:37:36.505Z,94722.00
2023-04-08T01:38:36.472Z,94720.00
2023-04-08T01:39:36.461Z,94720.00
2023-04-08T01:40:36.468Z,94722.00
2023-04-08T01:41:36.476Z,94720.00
2023-04-08T01:42:36.737Z,94720.00
2023-04-08T01:43:36.456Z,94720.00
2023-04-08T01:44:36.522Z,94724.00
2023-04-08T01:45:36.550Z,94724.00
2023-04-08T01:46:36.480Z,94726.00
2023-04-08T01:47:36.492Z,94726.00
2023-04-08T01:48:36.452Z,94726.00
2023-04-08T01:49:36.491Z,94724.00
2023-04-08T01:50:36.468Z,94724.00
2023-04-08T01:51:37.725Z,94724.00
2023-04-08T01:52:36.448Z,94726.00
2023-04-08T01:53:36.455Z,94726.00
2023-04-08T01:54:36.471Z,94727.00
2023-04-08T01:55:36.443Z,94731.00
2023-04-08T01:56:36.490Z,94731.00
2023-04-08T01:57:36.786Z,94729.00
2023-04-08T01:58:36.471Z,94729.00
2023-04-08T01:59:36.467Z,94731.00
2023-04-08T02:00:36.464Z,94729.00
2023-04-08T02:01:36.496Z,94731.00
2023-04-08T02:02:36.729Z,94731.00
2023-04-08T02:03:36.582Z,94733.00
2023-04-08T02:04:36.534Z,94733.00
2023-04-08T02:05:36.466Z,94737.00
2023-04-08T02:06:36.426Z,94733.00
2023-04-08T02:07:36.434Z,94735.00
2023-04-08T02:08:36.525Z,94737.00
2023-04-08T02:09:36.419Z,94739.00
2023-04-08T02:10:36.427Z,94741.00
2023-04-08T02:11:36.433Z,94739.00
2023-04-08T02:12:36.409Z,94739.00
2023-04-08T02:13:36.458Z,94739.00
2023-04-08T02:14:36.445Z,94741.00
2023-04-08T02:15:36.458Z,94743.00
2023-04-08T02:16:36.536Z,94745.00
2023-04-08T02:17:36.450Z,94745.00
2023-04-08T02:18:36.474Z,94743.00
2023-04-08T02:19:36.440Z,94743.00
2023-04-08T02:20:36.460Z,94743.00
2023-04-08T02:21:36.418Z,94743.00
2023-04-08T02:22:36.460Z,94743.00
2023-04-08T02:23:36.442Z,94743.00
2023-04-08T02:24:36.450Z,94743.00
2023-04-08T02:25:36.412Z,94745.00
2023-04-08T02:26:36.409Z,94743.00
2023-04-08T02:27:36.446Z,94747.00
2023-04-08T02:28:36.482Z,94745.00
2023-04-08T02:29:36.435Z,94745.00
2023-04-08T02:30:37.276Z,94743.00
2023-04-08T02:31:36.549Z,94747.00
2023-04-08T02:32:36.480Z,94743.00
2023-04-08T02:33:37.434Z,94745.00
2023-04-08T02:34:36.421Z,94743.00
2023-04-08T02:35:36.477Z,94745.00
2023-04-08T02:36:36.462Z,94743.00
2023-04-08T02:37:36.443Z,94745.00
2023-04-08T02:38:36.447Z,94743.00
2023-04-08T02:39:36.429Z,94741.00
2023-04-08T02:40:36.436Z,94743.00
2023-04-08T02:41:36.460Z,94741.00
2023-04-08T02:42:36.432Z,94741.00
2023-04-08T02:43:36.438Z,94741.00
2023-04-08T02:44:36.492Z,94739.00
2023-04-08T02:45:36.518Z,94741.00
2023-04-08T02:46:36.459Z,94743.00
2023-04-08T02:47:36.488Z,94743.00
2023-04-08T02:48:36.438Z,94745.00
2023-04-08T02:49:36.504Z,94745.00
2023-04-08T02:50:36.481Z,94745.00
2023-04-08T02:51:36.486Z,94747.00
2023-04-08T02:52:36.524Z,94747.00
2023-04-08T02:53:36.481Z,94747.00
2023-04-08T02:54:36.448Z,94745.00
2023-04-08T02:55:36.482Z,94747.00
2023-04-08T02:56:36.485Z,94745.00
2023-04-08T02:57:36.491Z,94747.00
2023-04-08T02:58:36.455Z,94747.00
2023-04-08T02:59:36.484Z,94749.00
2023-04-08T03:00:36.480Z,94743.00
2023-04-08T03:01:36.588Z,94749.00
2023-04-08T03:02:36.679Z,94745.00
2023-04-08T03:03:36.607Z,94745.00
2023-04-08T03:04:36.463Z,94747.00
2023-04-08T03:05:36.453Z,94745.00
2023-04-08T03:06:36.470Z,94749.00
2023-04-08T03:07:36.438Z,94749.00
2023-04-08T03:08:36.438Z,94749.00
2023-04-08T03:09:36.437Z,94751.00
2023-04-08T03:10:36.653Z,94753.00
2023-04-08T03:11:36.447Z,94751.00
2023-04-08T03:12:36.781Z,94753.00
2023-04-08T03:13:36.506Z,94751.00
2023-04-08T03:14:36.453Z,94749.00
2023-04-08T03:15:36.474Z,94751.00
2023-04-08T03:16:36.514Z,94749.00
2023-04-08T03:17:36.489Z,94749.00
2023-04-08T03:18:36.485Z,94749.00
2023-04-08T03:19:36.462Z,94749.00
2023-04-08T03:20:36.484Z,94745.00
2023-04-08T03:21:36.483Z,94747.00
2023-04-08T03:22:36.505Z,94749.00
2023-04-08T03:23:36.470Z,94747.00
2023-04-08T03:24:36.494Z,94749.00
2023-04-08T03:25:36.470Z,94751.00
2023-04-08T03:26:37.283Z,94753.00
2023-04-08T03:27:36.512Z,94753.00
2023-04-08T03:28:36.510Z,94753.00
2023-04-08T03:29:36.509Z,94749.00
2023-04-08T03:30:36.511Z,94749.00
2023-04-08T03:31:36.502Z,94751.00
2023-04-08T03:32:36.680Z,94751.00
2023-04-08T03:33:36.485Z,94749.00
2023-04-08T03:34:36.516Z,94749.00
2023-04-08T03:35:36.582Z,94749.00
2023-04-08T03:36:36.558Z,94749.00
2023-04-08T03:37:36.587Z,94751.00
2023-04-08T03:38:36.556Z,94751.00
2023-04-08T03:39:39.318Z,94751.00
2023-04-08T03:40:36.573Z,94749.00
2023-04-08T03:41:37.275Z,94749.00
2023-04-08T03:42:36.564Z,94749.00
2023-04-08T03:43:37.943Z,94749.00
2023-04-08T03:44:36.493Z,94751.00
2023-04-08T03:45:36.560Z,94751.00
2023-04-08T03:46:36.471Z,94753.00
2023-04-08T03:47:36.536Z,94751.00
2023-04-08T03:48:36.468Z,94755.00
2023-04-08T03:49:36.518Z,94757.00
2023-04-08T03:50:36.441Z,94759.00
2023-04-08T03:51:36.476Z,94759.00
2023-04-08T03:52:36.481Z,94759.00
2023-04-08T03:53:36.461Z,94761.00
2023-04-08T03:54:36.416Z,94763.00
2023-04-08T03:55:36.451Z,94763.00
2023-04-08T03:56:36.413Z,94765.00
2023-04-08T03:57:36.421Z,94765.00
2023-04-08T03:58:36.405Z,94765.00
2023-04-08T03:59:36.421Z,94767.00
2023-04-08T04:00:36.378Z,94769.00
2023-04-08T04:01:36.420Z,94767.00
2023-04-08T04:02:36.466Z,94767.00
2023-04-08T04:03:36.511Z,94767.00
2023-04-08T04:04:36.438Z,94767.00
2023-04-08T04:05:36.357Z,94769.00
2023-04-08T04:06:36.325Z,94767.00
2023-04-08T04:07:36.355Z,94771.00
2023-04-08T04:08:36.361Z,94771.00
2023-04-08T04:09:36.388Z,94771.00
2023-04-08T04:10:36.297Z,94773.00
2023-04-08T04:11:36.324Z,94776.00
2023-04-08T04:12:36.368Z,94774.00
2023-04-08T04:13:36.300Z,94776.00
2023-04-08T04:14:36.797Z,94776.00
2023-04-08T04:15:36.809Z,94774.00
2023-04-08T04:16:36.312Z,94774.00
2023-04-08T04:17:36.359Z,94776.00
2023-04-08T04:18:36.290Z,94778.00
2023-04-08T04:19:36.258Z,94778.00
2023-04-08T04:20:36.250Z,94780.00
2023-04-08T04:21:36.273Z,94784.00
2023-04-08T04:22:36.792Z,94784.00
2023-04-08T04:23:36.260Z,94788.00
2023-04-08T04:24:36.208Z,94786.00
2023-04-08T04:25:36.203Z,94786.00
2023-04-08T04:26:36.312Z,94786.00
2023-04-08T04:27:36.194Z,94786.00
2023-04-08T04:28:36.251Z,94786.00
2023-04-08T04:29:36.180Z,94784.00
2023-04-08T04:30:36.188Z,94786.00
2023-04-08T04:31:36.225Z,94784.00
2023-04-08T04:32:36.270Z,94786.00
2023-04-08T04:33:36.172Z,94786.00
2023-04-08T04:34:36.142Z,94790.00
2023-04-08T04:35:36.204Z,94790.00
2023-04-08T04:36:36.130Z,94788.00
2023-04-08T04:37:36.131Z,94790.00
2023-04-08T04:38:36.138Z,94788.00
2023-04-08T04:39:36.102Z,94792.00
2023-04-08T04:40:36.119Z,94790.00
2023-04-08T04:41:36.148Z,94794.00
2023-04-08T04:42:36.182Z,94794.00
2023-04-08T04:43:36.182Z,94790.00
2023-04-08T04:44:36.260Z,94790.00
2023-04-08T04:45:36.222Z,94792.00
2023-04-08T04:46:36.267Z,94794.00
2023-04-08T04:47:36.265Z,94798.00
2023-04-08T04:48:36.242Z,94794.00
2023-04-08T04:49:36.251Z,94796.00
2023-04-08T04:50:36.263Z,94800.00
2023-04-08T04:51:36.343Z,94794.00
2023-04-08T04:52:36.255Z,94794.00
2023-04-08T04:53:36.322Z,94796.00
2023-04-08T04:54:37.317Z,94796.00
2023-04-08T04:55:38.728Z,94798.00
2023-04-08T04:56:36.313Z,94796.00
2023-04-08T04:57:36.982Z,94802.00
2023-04-08T04:58:36.355Z,94798.00
2023-04-08T04:59:36.336Z,94802.00
2023-04-08T05:00:36.304Z,94802.00
2023-04-08T05:01:36.383Z,94802.00
2023-04-08T05:02:36.536Z,94802.00
2023-04-08T05:03:36.303Z,94802.00
2023-04-08T05:04:36.334Z,94798.00
2023-04-08T05:05:36.249Z,94798.00
2023-04-08T05:06:36.249Z,94802.00
2023-04-08T05:07:36.240Z,94802.00
2023-04-08T05:08:36.251Z,94804.00
2023-04-08T05:09:36.220Z,94804.00
2023-04-08T05:10:36.227Z,94808.00
2023-04-08T05:11:36.272Z,94810.00
2023-04-08T05:12:36.212Z,94810.00
2023-04-08T05:13:36.333Z,94812.00
2023-04-08T05:14:36.206Z,94812.00
2023-04-08T05:15:36.195Z,94812.00
2023-04-08T05:16:36.307Z,94812.00
2023-04-08T05:17:36.267Z,94818.00
2023-04-08T05:18:36.177Z,94814.00
2023-04-08T05:19:36.197Z,94816.00
2023-04-08T05:20:36.169Z,94816.00
2023-04-08T05:21:36.140Z,94820.00
2023-04-08T05:22:36.136Z,94818.00
2023-04-08T05:23:36.143Z,94818.00
2023-04-08T05:24:36.148Z,94816.00
2023-04-08T05:25:36.836Z,94820.00
2023-04-08T05:26:36.129Z,94816.00
2023-04-08T05:27:36.096Z,94818.00
2023-04-08T05:28:36.201Z,94818.00
2023-04-08T05:29:36.848Z,94816.00
2023-04-08T05:30:36.115Z,94818.00
2023-04-08T05:31:36.081Z,94818.00
2023-04-08T05:32:36.129Z,94818.00
2023-04-08T05:33:37.023Z,94822.00
2023-04-08T05:34:36.849Z,94822.00
2023-04-08T05:35:36.073Z,94820.00
2023-04-08T05:36:36.085Z,94822.00
2023-04-08T05:37:36.177Z,94820.00
2023-04-08T05:38:36.054Z,94824.00
2023-04-08T05:39:36.065Z,94822.00
2023-04-08T05:40:36.049Z,94824.00
2023-04-08T05:41:35.997Z,94826.00
2023-04-08T05:42:36.039Z,94824.00
2023-04-08T05:43:36.352Z,94824.00
2023-04-08T05:44:35.998Z,94828.00
2023-04-08T05:45:35.974Z,94826.00
2023-04-08T05:46:36.019Z,94828.00
2023-04-08T05:47:36.033Z,94828.00
2023-04-08T05:48:36.029Z,94829.00
2023-04-08T05:49:35.950Z,94828.00
2023-04-08T05:50:35.963Z,94831.00
2023-04-08T05:51:35.938Z,94831.00
2023-04-08T05:52:38.866Z,94833.00
2023-04-08T05:53:35.924Z,94833.00
2023-04-08T05:54:35.888Z,94833.00
2023-04-08T05:55:35.906Z,94833.00
2023-04-08T05:56:35.886Z,94835.00
2023-04-08T05:57:35.923Z,94841.00
2023-04-08T05:58:35.884Z,94841.00
2023-04-08T05:59:35.887Z,94837.00
2023-04-08T06:00:35.859Z,94837.00
2023-04-08T06:01:35.925Z,94837.00
2023-04-08T06:02:35.919Z,94837.00
2023-04-08T06:03:35.955Z,94835.00
2023-04-08T06:04:35.902Z,94831.00
2023-04-08T06:05:35.832Z,94837.00
2023-04-08T06:06:35.903Z,94837.00
2023-04-08T06:07:35.794Z,94835.00
2023-04-08T06:08:35.823Z,94837.00
2023-04-08T06:09:35.784Z,94837.00
2023-04-08T06:10:35.804Z,94835.00
2023-04-08T06:11:35.789Z,94839.00
2023-04-08T06:12:35.773Z,94839.00
2023-04-08T06:13:35.735Z,94839.00
2023-04-08T06:14:35.867Z,94841.00
2023-04-08T06:15:35.738Z,94839.00
2023-04-08T06:16:35.754Z,94839.00
2023-04-08T06:17:35.746Z,94841.00
2023-04-08T06:18:35.713Z,94841.00
2023-04-08T06:19:35.716Z,94841.00
2023-04-08T06:20:35.795Z,94843.00
2023-04-08T06:21:35.697Z,94841.00
2023-04-08T06:22:35.694Z,94841.00
2023-04-08T06:23:35.682Z,94843.00
2023-04-08T06:24:35.664Z,94841.00
2023-04-08T06:25:35.680Z,94841.00
2023-04-08T06:26:35.672Z,94841.00
2023-04-08T06:27:35.668Z,94841.00
2023-04-08T06:28:35.932Z,94843.00
2023-04-08T06:29:35.622Z,94843.00
2023-04-08T06:30:35.619Z,94841.00
2023-04-08T06:31:35.728Z,94839.00
2023-04-08T06:32:35.628Z,94837.00
2023-04-08T06:33:35.699Z,94837.00
2023-04-08T06:34:35.624Z,94837.00
2023-04-08T06:35:35.759Z,94835.00
2023-04-08T06:36:35.584Z,94837.00
2023-04-08T06:37:35.586Z,94837.00
2023-04-08T06:38:35.614Z,94839.00
2023-04-08T06:39:35.591Z,94837.00
2023-04-08T06:40:35.537Z,94839.00
2023-04-08T06:41:35.561Z,94837.00
2023-04-08T06:42:35.548Z,94841.00
2023-04-08T06:43:35.603Z,94837.00
2023-04-08T06:44:35.575Z,94839.00
2023-04-08T06:45:35.647Z,94837.00
2023-04-08T06:46:36.378Z,94837.00
2023-04-08T06:47:35.545Z,94841.00
2023-04-08T06:48:35.540Z,94839.00
2023-04-08T06:49:35.494Z,94841.00
2023-04-08T06:50:35.536Z,94839.00
2023-04-08T06:51:35.501Z,94837.00
2023-04-08T06:52:35.473Z,94837.00
2023-04-08T06:53:35.479Z,94835.00
2023-04-08T06:54:35.678Z,94837.00
2023-04-08T06:55:35.466Z,94839.00
2023-04-08T06:56:35.439Z,94837.00
2023-04-08T06:57:35.444Z,94841.00
2023-04-08T06:58:35.422Z,94837.00
2023-04-08T06:59:35.536Z,94839.00
2023-04-08T07:00:35.458Z,94833.00
2023-04-08T07:01:35.522Z,94837.00
2023-04-08T07:02:35.597Z,94835.00
2023-04-08T07:03:35.460Z,94835.00
2023-04-08T07:04:35.945Z,94833.00
2023-04-08T07:05:35.375Z,94835.00
2023-04-08T07:06:35.376Z,94829.00
2023-04-08T07:07:35.385Z,94833.00
2023-04-08T07:08:36.893Z,94831.00
2023-04-08T07:09:35.358Z,94833.00
2023-04-08T07:10:35.340Z,94831.00
2023-04-08T07:11:35.366Z,94833.00
2023-04-08T07:12:35.300Z,94833.00
2023-04-08T07:13:35.292Z,94837.00
2023-04-08T07:14:35.352Z,94837.00
2023-04-08T07:15:37.873Z,94837.00
2023-04-08T07:16:35.571Z,94835.00
2023-04-08T07:17:36.406Z,94839.00
2023-04-08T07:18:35.531Z,94841.00
2023-04-08T07:19:35.504Z,94839.00
2023-04-08T07:20:35.472Z,94839.00
2023-04-08T07:21:35.654Z,94841.00
2023-04-08T07:22:35.513Z,94841.00
2023-04-08T07:23:35.479Z,94841.00
2023-04-08T07:24:35.450Z,94841.00
2023-04-08T07:25:35.456Z,94843.00
2023-04-08T07:26:35.472Z,94845.00
2023-04-08T07:27:35.456Z,94843.00
2023-04-08T07:28:35.524Z,94845.00
2023-04-08T07:29:35.496Z,94841.00
2023-04-08T07:30:35.522Z,94843.00
2023-04-08T07:31:35.742Z,94845.00
2023-04-08T07:32:35.580Z,94847.00
2023-04-08T07:33:35.549Z,94847.00
2023-04-08T07:34:35.539Z,94847.00
2023-04-08T07:35:35.751Z,94845.00
2023-04-08T07:36:35.554Z,94845.00
2023-04-08T07:37:35.530Z,94849.00
2023-04-08T07:38:35.556Z,94847.00
2023-04-08T07:39:35.557Z,94843.00
2023-04-08T07:40:35.594Z,94847.00
2023-04-08T07:41:35.557Z,94847.00
2023-04-08T07:42:35.579Z,94845.00
2023-04-08T07:43:35.593Z,94849.00
2023-04-08T07:44:35.559Z,94849.00
2023-04-08T07:45:35.576Z,94849.00
2023-04-08T07:46:35.681Z,94849.00
2023-04-08T07:47:35.673Z,94851.00
2023-04-08T07:48:35.645Z,94851.00
2023-04-08T07:49:35.650Z,94853.00
2023-04-08T07:50:35.654Z,94851.00
2023-04-08T07:51:51.398Z,94851.00
2023-04-08T07:52:35.603Z,94851.00
2023-04-08T07:53:36.401Z,94851.00
2023-04-08T07:54:36.476Z,94849.00
2023-04-08T07:55:35.921Z,94849.00
2023-04-08T07:56:35.581Z,94847.00
2023-04-08T07:57:35.612Z,94849.00
2023-04-08T07:58:35.550Z,94851.00
2023-04-08T07:59:35.578Z,94849.00
2023-04-08T08:00:35.597Z,94847.00
2023-04-08T08:01:35.588Z,94847.00
2023-04-08T08:02:35.742Z,94845.00
2023-04-08T08:03:38.589Z,94845.00
2023-04-08T08:04:35.696Z,94847.00
2023-04-08T08:05:35.499Z,94843.00
2023-04-08T08:06:35.590Z,94843.00
2023-04-08T08:07:35.527Z,94843.00
2023-04-08T08:08:35.493Z,94843.00
2023-04-08T08:09:35.521Z,94845.00
2023-04-08T08:10:35.465Z,94845.00
2023-04-08T08:11:35.488Z,94843.00
2023-04-08T08:12:35.445Z,94843.00
2023-04-08T08:13:35.952Z,94845.00
2023-04-08T08:14:35.446Z,94843.00
2023-04-08T08:15:35.506Z,94845.00
2023-04-08T08:16:35.592Z,94845.00
2023-04-08T08:17:35.488Z,94843.00
2023-04-08T08:18:35.437Z,94843.00
2023-04-08T08:19:35.442Z,94843.00
2023-04-08T08:20:35.401Z,94841.00
2023-04-08T08:21:35.436Z,94839.00
2023-04-08T08:22:39.676Z,94841.00
2023-04-08T08:23:36.403Z,94839.00
2023-04-08T08:24:35.382Z,94835.00
2023-04-08T08:25:35.403Z,94831.00
2023-04-08T08:26:35.377Z,94833.00
2023-04-08T08:27:35.388Z,94829.00
2023-04-08T08:28:35.358Z,94829.00
2023-04-08T08:29:35.387Z,94829.00
2023-04-08T08:30:35.464Z,94828.00
2023-04-08T08:31:35.427Z,94831.00
2023-04-08T08:32:35.339Z,94828.00
2023-04-08T08:33:35.360Z,94828.00
2023-04-08T08:34:35.313Z,94829.00
2023-04-08T08:35:35.362Z,94828.00
2023-04-08T08:36:35.426Z,94829.00
2023-04-08T08:37:35.364Z,94828.00
2023-04-08T08:38:35.289Z,94828.00
2023-04-08T08:39:35.371Z,94828.00
2023-04-08T08:40:35.273Z,94826.00
2023-04-08T08:41:35.304Z,94824.00
2023-04-08T08:42:35.278Z,94824.00
2023-04-08T08:43:35.287Z,94826.00
2023-04-08T08:44:35.253Z,94828.00
2023-04-08T08:45:35.332Z,94824.00
2023-04-08T08:46:35.287Z,94822.00
2023-04-08T08:47:35.263Z,94820.00
2023-04-08T08:48:35.255Z,94818.00
2023-04-08T08:49:35.255Z,94818.00
2023-04-08T08:50:35.320Z,94818.00
2023-04-08T08:51:35.322Z,94818.00
2023-04-08T08:52:35.902Z,94818.00
2023-04-08T08:53:36.152Z,94818.00
2023-04-08T08:54:35.170Z,94816.00
2023-04-08T08:55:53.239Z,94818.00
2023-04-08T08:56:36.186Z,94818.00
2023-04-08T08:57:35.906Z,94816.00
2023-04-08T08:58:35.292Z,94814.00
2023-04-08T08:59:35.161Z,94814.00
2023-04-08T09:00:35.139Z,94810.00
2023-04-08T09:01:35.975Z,94810.00
2023-04-08T09:02:36.087Z,94806.00
2023-04-08T09:03:35.230Z,94808.00
2023-04-08T09:04:35.360Z,94808.00
2023-04-08T09:05:35.269Z,94810.00
2023-04-08T09:06:35.462Z,94810.00
2023-04-08T09:07:35.067Z,94812.00
2023-04-08T09:08:35.082Z,94810.00
2023-04-08T09:09:35.097Z,94812.00
2023-04-08T09:10:35.074Z,94808.00
2023-04-08T09:11:35.081Z,94808.00
2023-04-08T09:12:35.915Z,94808.00
2023-04-08T09:13:35.119Z,94806.00
2023-04-08T09:14:35.192Z,94802.00
2023-04-08T09:15:35.216Z,94800.00
2023-04-08T09:16:35.317Z,94800.00
2023-04-08T09:17:35.383Z,94798.00
2023-04-08T09:18:35.445Z,94796.00
2023-04-08T09:19:35.449Z,94796.00
2023-04-08T09:20:35.524Z,94794.00
2023-04-08T09:21:35.579Z,94794.00
2023-04-08T09:22:35.607Z,94794.00
2023-04-08T09:23:35.981Z,94792.00
2023-04-08T09:24:35.748Z,94790.00
2023-04-08T09:25:35.754Z,94784.00
2023-04-08T09:26:35.892Z,94786.00
2023-04-08T09:27:35.891Z,94782.00
2023-04-08T09:28:37.050Z,94780.00
2023-04-08T09:29:39.124Z,94780.00
2023-04-08T09:30:36.063Z,94780.00
2023-04-08T09:31:36.564Z,94776.00
2023-04-08T09:32:36.028Z,94776.00
2023-04-08T09:33:35.986Z,94776.00
2023-04-08T09:34:35.973Z,94776.00
2023-04-08T09:35:36.055Z,94774.00
2023-04-08T09:36:36.024Z,94776.00
2023-04-08T09:37:35.952Z,94773.00
2023-04-08T09:38:36.012Z,94773.00
2023-04-08T09:39:36.032Z,94773.00
2023-04-08T09:40:35.942Z,94769.00
2023-04-08T09:41:35.980Z,94769.00
2023-04-08T09:42:35.937Z,94767.00
2023-04-08T09:43:35.947Z,94765.00
2023-04-08T09:44:35.914Z,94765.00
2023-04-08T09:45:35.911Z,94765.00
2023-04-08T09:46:35.947Z,94765.00
2023-04-08T09:47:35.977Z,94765.00
2023-04-08T09:48:35.883Z,94767.00
2023-04-08T09:49:35.911Z,94761.00
2023-04-08T09:50:35.878Z,94761.00
2023-04-08T09:51:35.851Z,94761.00
2023-04-08T09:52:35.911Z,94761.00
2023-04-08T09:53:35.921Z,94759.00
2023-04-08T09:54:36.003Z,94763.00
2023-04-08T09:55:36.072Z,94757.00
2023-04-08T09:56:36.129Z,94759.00
2023-04-08T09:57:36.200Z,94759.00
2023-04-08T09:58:36.443Z,94761.00
2023-04-08T09:59:36.315Z,94757.00
2023-04-08T10:00:36.372Z,94759.00
2023-04-08T10:01:37.095Z,94759.00
2023-04-08T10:02:36.652Z,94759.00
2023-04-08T10:03:36.709Z,94755.00
2023-04-08T10:04:36.682Z,94755.00
2023-04-08T10:05:36.719Z,94755.00
2023-04-08T10:06:36.779Z,94757.00
2023-04-08T10:07:36.842Z,94757.00
2023-04-08T10:08:36.864Z,94757.00
2023-04-08T10:09:36.947Z,94753.00
2023-04-08T10:10:37.009Z,94755.00
2023-04-08T10:11:37.084Z,94753.00
2023-04-08T10:12:37.100Z,94753.00
2023-04-08T10:13:37.218Z,94751.00
2023-04-08T10:14:37.248Z,94753.00
2023-04-08T10:15:37.268Z,94749.00
2023-04-08T10:16:37.343Z,94749.00
2023-04-08T10:17:37.421Z,94755.00
2023-04-08T10:18:37.451Z,94753.00
2023-04-08T10:19:37.495Z,94751.00
2023-04-08T10:20:37.555Z,94751.00
2023-04-08T10:21:37.608Z,94751.00
2023-04-08T10:22:37.598Z,94751.00
2023-04-08T10:23:37.707Z,94751.00
2023-04-08T10:24:37.694Z,94751.00
2023-04-08T10:25:37.734Z,94749.00
2023-04-08T10:26:37.785Z,94749.00
2023-04-08T10:27:37.810Z,94749.00
2023-04-08T10:28:37.925Z,94749.00
2023-04-08T10:29:37.812Z,94747.00
2023-04-08T10:30:37.881Z,94749.00
2023-04-08T10:31:37.954Z,94745.00
2023-04-08T10:32:37.895Z,94749.00
2023-04-08T10:33:47.773Z,94751.00
2023-04-08T10:34:38.894Z,94745.00
2023-04-08T10:35:37.939Z,94745.00
2023-04-08T10:36:37.855Z,94747.00
2023-04-08T10:37:37.876Z,94745.00
2023-04-08T10:38:37.858Z,94745.00
2023-04-08T10:39:38.794Z,94747.00
2023-04-08T10:40:37.826Z,94747.00
2023-04-08T10:41:37.795Z,94749.00
2023-04-08T10:42:37.812Z,94751.00
2023-04-08T10:43:37.886Z,94745.00
2023-04-08T10:44:37.783Z,94745.00
2023-04-08T10:45:37.925Z,94747.00
2023-04-08T10:46:37.921Z,94749.00
2023-04-08T10:47:37.911Z,94747.00
2023-04-08T10:48:37.899Z,94751.00
2023-04-08T10:49:37.920Z,94749.00
2023-04-08T10:50:37.917Z,94751.00
2023-04-08T10:51:37.982Z,94753.00
2023-04-08T10:52:37.922Z,94755.00
2023-04-08T10:53:37.941Z,94755.00
2023-04-08T10:54:38.014Z,94753.00
2023-04-08T10:55:38.028Z,94751.00
2023-04-08T10:56:37.994Z,94751.00
2023-04-08T10:57:38.172Z,94753.00
2023-04-08T10:58:38.022Z,94755.00
2023-04-08T10:59:38.035Z,94755.00
2023-04-08T11:00:38.065Z,94755.00
2023-04-08T11:01:38.185Z,94751.00
2023-04-08T11:02:38.190Z,94753.00
2023-04-08T11:03:38.206Z,94753.00
2023-04-08T11:04:38.141Z,94757.00
2023-04-08T11:05:38.077Z,94755.00
2023-04-08T11:06:38.176Z,94759.00
2023-04-08T11:07:38.068Z,94759.00
2023-04-08T11:08:38.046Z,94757.00
2023-04-08T11:09:38.033Z,94753.00
2023-04-08T11:10:38.049Z,94757.00
2023-04-08T11:11:39.004Z,94757.00
2023-04-08T11:12:38.058Z,94757.00
2023-04-08T11:13:38.081Z,94759.00
2023-04-08T11:14:38.058Z,94757.00
2023-04-08T11:15:38.141Z,94757.00
2023-04-08T11:16:38.096Z,94757.00
2023-04-08T11:17:38.191Z,94755.00
2023-04-08T11:18:38.092Z,94757.00
2023-04-08T11:19:38.091Z,94757.00
2023-04-08T11:20:38.091Z,94759.00
2023-04-08T11:21:38.114Z,94763.00
2023-04-08T11:22:38.128Z,94761.00
2023-04-08T11:23:38.134Z,94755.00
2023-04-08T11:24:38.100Z,94761.00
2023-04-08T11:25:38.182Z,94763.00
2023-04-08T11:26:38.238Z,94761.00
2023-04-08T11:27:40.973Z,94759.00
2023-04-08T11:28:38.073Z,94763.00
2023-04-08T11:29:38.120Z,94763.00
2023-04-08T11:30:38.149Z,94765.00
2023-04-08T11:31:38.150Z,94765.00
2023-04-08T11:32:38.074Z,94759.00
2023-04-08T11:33:38.039Z,94759.00
2023-04-08T11:34:38.010Z,94755.00
2023-04-08T11:35:38.089Z,94757.00
2023-04-08T11:36:38.012Z,94755.00
2023-04-08T11:37:37.997Z,94755.00
2023-04-08T11:38:38.020Z,94755.00
2023-04-08T11:39:37.974Z,94757.00
2023-04-08T11:40:37.992Z,94755.00
2023-04-08T11:41:37.971Z,94751.00
2023-04-08T11:42:39.027Z,94755.00
2023-04-08T11:43:37.966Z,94753.00
2023-04-08T11:44:37.927Z,94753.00